Time;durP1;ratioP1;P1;durP2;ratioP2;P2;SDS_P1;SDS_P2;PMS_P1;PMS_P2;Temp;Humidity;BMP_temperature;BMP_pressure;BME280_temperature;BME280_humidity;BME280_pressure;Samples;Min_cycle;Max_cycle;Signal;HPM_P1;HPM_P2
2022/06/17 00:02:04;;;;;;;5.20;4.80;;;16.30;99.90;;;17.17;67.63;98552.13;5168095;28;20229;-56
2022/06/17 00:04:37;;;;;;;5.90;5.40;;;16.30;99.90;;;17.01;67.89;98561.81;5174502;28;20203;-55
2022/06/17 00:07:15;;;;;;;5.60;5.20;;;16.20;99.90;;;17.00;68.94;98560.06;5199002;28;20211;-56
2022/06/17 00:09:48;;;;;;;5.38;4.97;;;16.20;99.90;;;16.95;70.12;98558.09;5177396;28;20227;-56
2022/06/17 00:12:21;;;;;;;5.88;5.45;;;16.20;99.90;;;16.93;69.19;98552.84;5180100;28;20203;-55
2022/06/17 00:15:13;;;;;;;5.35;4.97;;;16.10;99.90;;;16.99;69.08;98547.94;5171044;28;20230;-53
2022/06/17 00:17:51;;;;;;;5.65;5.20;;;16.10;99.90;;;16.94;68.53;98552.06;5178856;28;20642;-55
2022/06/17 00:20:25;;;;;;;5.15;4.75;;;16.10;99.90;;;16.95;67.87;98548.63;5182496;28;20302;-57
2022/06/17 00:22:59;;;;;;;5.32;5.03;;;16.10;99.90;;;16.90;68.61;98550.13;5180525;28;20671;-55
2022/06/17 00:25:35;;;;;;;5.38;4.97;;;16.10;99.90;;;16.90;68.86;98547.56;5198700;28;20199;-57
2022/06/17 00:28:12;;;;;;;5.40;5.10;;;16.10;99.90;;;16.89;69.82;98550.97;5178001;28;20283;-57
2022/06/17 00:30:46;;;;;;;5.25;4.85;;;16.10;99.90;;;16.88;69.02;98550.09;5173527;28;20255;-58
2022/06/17 00:33:21;;;;;;;5.78;5.35;;;16.10;99.90;;;16.87;69.03;98552.59;5192752;28;20206;-57
2022/06/17 00:35:57;;;;;;;6.60;5.40;;;16.10;99.90;;;16.81;68.69;98542.88;5179714;28;20560;-57
2022/06/17 00:38:35;;;;;;;5.65;5.22;;;16.00;99.90;;;16.82;70.41;98556.66;5176054;28;20283;-57
2022/06/17 00:41:24;;;;;;;5.93;5.53;;;16.00;99.90;;;16.76;69.71;98551.19;5178039;28;20203;-56
2022/06/17 00:44:00;;;;;;;6.28;5.78;;;16.10;99.90;;;16.70;69.74;98563.84;5179684;28;20577;-53
2022/06/17 00:46:41;;;;;;;6.18;5.68;;;16.00;99.90;;;16.66;70.20;98563.72;5176398;28;20229;-52
2022/06/17 00:49:22;;;;;;;5.90;5.40;;;15.90;99.90;;;16.63;70.69;98563.56;5177777;28;20203;-54
2022/06/17 00:52:01;;;;;;;5.45;5.05;;;15.90;99.90;;;16.58;69.49;98559.91;5181873;28;20203;-52
2022/06/17 00:54:40;;;;;;;5.75;5.35;;;15.70;99.90;;;16.61;69.79;98562.63;5185652;28;20286;-57
2022/06/17 00:57:34;;;;;;;5.93;5.53;;;15.70;99.90;;;16.54;70.72;98564.84;5191229;28;20271;-56
2022/06/17 01:00:18;;;;;;;6.20;5.70;;;15.60;99.90;;;16.49;70.56;98574.09;5181213;28;20268;-57
2022/06/17 01:02:56;;;;;;;5.75;5.35;;;15.60;99.90;;;16.41;69.77;98572.03;5192069;28;20298;-57
2022/06/17 01:05:43;;;;;;;6.70;5.45;;;15.60;99.90;;;16.36;71.17;98565.78;5177049;28;20297;-56
2022/06/17 01:11:13;;;;;;;5.65;5.28;;;15.40;99.90;;;16.13;69.88;98563.84;5177513;28;20223;-56
2022/06/17 01:13:51;;;;;;;5.97;5.57;;;15.20;99.90;;;16.12;70.75;98568.13;5197811;28;20210;-57
2022/06/17 01:16:29;;;;;;;6.13;5.60;;;15.20;99.90;;;16.08;70.79;98571.38;5178840;28;20202;-56
2022/06/17 01:19:17;;;;;;;6.30;5.88;;;15.30;99.90;;;15.98;71.09;98558.84;5183452;28;20230;-58
2022/06/17 01:22:01;;;;;;;6.60;6.05;;;15.20;99.90;;;15.93;72.55;98565.50;5177184;28;20434;-55
2022/06/17 01:24:36;;;;;;;5.97;5.60;;;15.20;99.90;;;15.91;72.18;98567.09;5174369;28;20207;-57
2022/06/17 01:27:10;;;;;;;6.80;6.18;;;15.00;99.90;;;15.86;72.10;98568.59;5179918;28;20238;-56
2022/06/17 01:29:43;;;;;;;6.22;5.72;;;15.00;99.90;;;15.88;72.19;98572.13;5179414;28;20207;-59
2022/06/17 01:32:18;;;;;;;6.25;5.75;;;15.00;99.90;;;15.87;73.57;98565.19;5180081;28;20234;-54
2022/06/17 01:34:51;;;;;;;6.45;5.95;;;15.10;99.90;;;15.81;73.42;98559.75;5177773;28;20233;-55
2022/06/17 01:37:24;;;;;;;5.50;5.18;;;15.00;99.90;;;15.77;73.43;98551.88;5177129;28;20227;-57
2022/06/17 01:39:59;;;;;;;5.90;5.43;;;15.00;99.90;;;15.71;73.09;98554.16;5178480;28;20254;-57
2022/06/17 01:42:34;;;;;;;5.90;5.50;;;14.90;99.90;;;15.65;74.59;98550.34;5174960;28;20283;-57
2022/06/17 01:45:09;;;;;;;6.22;5.82;;;14.90;99.90;;;15.65;73.29;98543.53;5178342;28;20244;-57
2022/06/17 01:47:45;;;;;;;6.05;5.65;;;14.90;99.90;;;15.70;73.97;98552.38;5181141;28;20722;-57
2022/06/17 01:50:22;;;;;;;6.35;5.90;;;15.00;99.90;;;15.69;73.55;98553.19;5177403;28;20255;-57
2022/06/17 01:53:00;;;;;;;6.28;5.78;;;14.90;99.90;;;15.71;73.20;98559.31;5170381;28;20202;-57
2022/06/17 01:55:40;;;;;;;6.50;6.00;;;14.80;99.90;;;15.62;74.96;98547.63;5173694;28;20233;-57
2022/06/17 01:58:19;;;;;;;6.13;5.55;;;14.90;99.90;;;15.58;73.64;98540.59;5180163;28;20765;-57
2022/06/17 02:00:55;;;;;;;6.93;6.32;;;14.90;99.90;;;15.60;75.25;98541.53;5171380;28;20313;-57
2022/06/17 02:03:33;;;;;;;6.30;5.90;;;14.90;99.90;;;15.55;75.10;98544.78;5176371;28;20206;-57
2022/06/17 02:06:14;;;;;;;6.65;6.25;;;14.80;99.90;;;15.51;75.93;98549.72;5171827;28;20281;-58
2022/06/17 02:08:47;;;;;;;6.43;6.03;;;14.90;99.90;;;15.51;76.26;98540.28;5174851;28;20223;-57
2022/06/17 02:11:22;;;;;;;6.47;6.07;;;14.90;99.90;;;15.53;75.37;98541.22;5174597;28;20256;-58
2022/06/17 02:13:55;;;;;;;6.25;5.85;;;14.80;99.90;;;15.46;75.15;98553.75;5174767;28;20206;-56
2022/06/17 02:16:29;;;;;;;6.78;6.38;;;14.70;99.90;;;15.45;75.75;98555.44;5172593;28;20226;-58
2022/06/17 02:19:03;;;;;;;6.63;6.22;;;14.70;99.90;;;15.39;75.69;98555.13;5176203;28;20607;-57
2022/06/17 02:21:41;;;;;;;6.57;6.07;;;14.70;99.90;;;15.42;75.49;98547.53;5181457;28;20218;-57
2022/06/17 02:24:16;;;;;;;6.95;6.45;;;14.60;99.90;;;15.44;75.16;98542.47;5170689;28;20257;-56
2022/06/17 02:26:51;;;;;;;6.55;6.10;;;14.50;99.90;;;15.37;75.53;98535.28;5179557;28;20643;-56
2022/06/17 02:29:25;;;;;;;6.93;6.43;;;14.50;99.90;;;15.31;76.29;98539.31;5172238;28;20267;-57
2022/06/17 02:31:59;;;;;;;7.20;6.53;;;14.50;99.90;;;15.29;76.46;98538.34;5191114;28;20219;-56
2022/06/17 02:34:33;;;;;;;6.93;6.43;;;14.50;99.90;;;15.26;76.81;98543.34;5175935;28;20285;-55
2022/06/17 02:37:10;;;;;;;7.43;6.82;;;14.50;99.90;;;15.31;76.85;98541.88;5175174;28;20235;-56
2022/06/17 02:39:47;;;;;;;6.53;6.13;;;14.50;99.90;;;15.20;76.55;98547.31;5179482;28;20708;-57
2022/06/17 02:42:24;;;;;;;6.97;6.45;;;14.40;99.90;;;15.19;76.84;98551.56;5179020;28;20207;-57
2022/06/17 02:45:01;;;;;;;6.90;6.35;;;14.40;99.90;;;15.21;76.17;98564.53;5180120;28;20259;-55
2022/06/17 02:47:35;;;;;;;6.72;6.13;;;14.40;99.90;;;15.23;76.05;98561.22;5174184;28;20234;-57
2022/06/17 02:50:15;;;;;;;6.80;6.30;;;14.30;99.90;;;15.20;76.01;98563.66;5172110;28;20203;-57
2022/06/17 02:52:50;;;;;;;6.93;6.43;;;14.40;99.90;;;15.17;77.13;98565.19;5177988;28;20596;-56
2022/06/17 02:55:28;;;;;;;6.60;6.20;;;14.40;99.90;;;15.08;76.01;98569.06;5173029;28;20282;-57
2022/06/17 02:58:13;;;;;;;6.25;5.85;;;14.30;99.90;;;15.01;74.34;98571.25;5171596;28;20741;-57
2022/06/17 03:00:47;;;;;;;6.13;5.63;;;14.10;99.90;;;14.75;74.31;98570.78;5169965;28;20678;-56
2022/06/17 03:03:22;;;;;;;6.25;5.75;;;13.90;99.90;;;14.70;73.75;98568.78;5178435;28;20222;-57
2022/06/17 03:05:55;;;;;;;6.38;5.97;;;13.80;99.90;;;14.75;75.36;98564.75;5173346;28;20216;-56
2022/06/17 03:08:32;;;;;;;6.40;5.90;;;13.90;99.90;;;14.71;76.58;98562.81;5168253;28;20256;-57
2022/06/17 03:11:06;;;;;;;6.43;5.93;;;13.90;99.90;;;14.71;77.42;98576.59;5167723;28;20199;-56
2022/06/17 03:13:47;;;;;;;6.22;5.80;;;13.90;99.90;;;14.76;76.08;98574.22;5177455;28;20724;-57
2022/06/17 03:16:23;;;;;;;6.85;5.65;;;14.00;99.90;;;14.81;76.27;98578.81;5171598;28;20240;-57
2022/06/17 03:18:57;;;;;;;6.40;5.95;;;14.00;99.90;;;14.83;75.84;98577.22;5173775;28;20656;-57
2022/06/17 03:21:30;;;;;;;5.57;5.28;;;14.00;99.90;;;14.86;75.35;98577.38;5177022;28;20203;-57
2022/06/17 03:24:11;;;;;;;7.07;6.47;;;14.00;99.90;;;14.82;76.70;98577.13;5174438;28;20269;-56
2022/06/17 03:26:50;;;;;;;6.40;6.00;;;14.00;99.90;;;14.74;77.50;98576.75;5174703;28;20229;-56
2022/06/17 03:29:27;;;;;;;6.75;6.32;;;13.90;99.90;;;14.70;77.28;98590.25;5174589;28;20644;-57
2022/06/17 03:32:04;;;;;;;5.90;5.40;;;13.90;99.90;;;14.76;77.35;98582.84;5185173;28;20688;-57
2022/06/17 03:34:42;;;;;;;6.82;6.25;;;14.00;99.90;;;14.72;76.36;98583.50;5173007;28;20225;-56
2022/06/17 03:37:23;;;;;;;6.97;6.40;;;14.00;99.90;;;14.75;78.17;98587.91;5179431;28;20237;-57
2022/06/17 03:40:04;;;;;;;6.30;5.70;;;14.00;99.90;;;14.74;77.96;98602.47;5177179;28;20602;-56
2022/06/17 03:42:56;;;;;;;7.03;6.47;;;14.00;99.90;;;14.69;78.66;98596.19;5177027;28;20281;-57
2022/06/17 03:45:43;;;;;;;6.88;6.28;;;14.00;99.90;;;14.65;78.60;98591.72;5174699;28;20624;-54
2022/06/17 03:48:29;;;;;;;6.70;6.25;;;14.00;99.90;;;14.69;77.56;98603.91;5172785;28;20723;-57
2022/06/17 03:51:02;;;;;;;6.07;5.68;;;14.00;99.90;;;14.70;77.66;98597.97;5176885;28;20199;-55
2022/06/17 03:53:38;;;;;;;6.85;6.30;;;13.90;99.90;;;14.64;75.39;98606.22;5179042;28;20230;-57
2022/06/17 03:56:17;;;;;;;6.65;6.20;;;13.80;99.90;;;14.63;77.83;98608.75;5183427;28;20278;-56
2022/06/17 03:58:52;;;;;;;6.85;6.28;;;13.90;99.90;;;14.66;76.51;98608.03;5176354;28;21398;-56
2022/06/17 04:01:35;;;;;;;6.85;6.35;;;13.90;99.90;;;14.65;76.80;98614.88;5179499;28;20198;-56
2022/06/17 04:04:16;;;;;;;6.60;6.10;;;13.90;99.90;;;14.67;76.60;98615.81;5180060;28;20207;-56
2022/06/17 04:06:54;;;;;;;6.50;6.05;;;13.90;99.90;;;14.61;77.61;98620.63;5180828;28;20197;-56
2022/06/17 04:09:30;;;;;;;6.53;6.03;;;13.90;99.90;;;14.73;76.95;98630.69;5212850;28;20203;-55
2022/06/17 04:12:20;;;;;;;6.45;6.05;;;14.00;99.90;;;14.66;75.19;98629.50;5177871;28;20202;-57
2022/06/17 04:15:01;;;;;;;6.38;5.88;;;13.90;99.90;;;14.62;75.36;98638.75;5183508;28;20232;-55
2022/06/17 04:17:40;;;;;;;6.43;5.93;;;13.70;99.90;;;14.67;76.34;98645.81;5180954;28;20272;-56
2022/06/17 04:20:30;;;;;;;6.43;5.93;;;13.80;99.90;;;14.72;77.89;98634.97;5178953;28;20655;-56
2022/06/17 04:23:11;;;;;;;6.78;6.28;;;13.90;99.90;;;14.79;77.84;98634.50;5181324;28;20222;-56
2022/06/17 04:25:48;;;;;;;6.70;6.15;;;14.10;99.90;;;14.86;76.62;98628.84;5183328;28;20191;-57
2022/06/17 04:28:26;;;;;;;7.10;6.53;;;14.10;99.90;;;14.93;76.82;98634.31;5185157;28;20298;-57
2022/06/17 04:31:03;;;;;;;6.80;6.30;;;14.10;99.90;;;14.96;76.16;98639.63;5176267;28;20608;-56
2022/06/17 04:33:43;;;;;;;6.95;6.35;;;14.20;99.90;;;15.02;76.15;98637.38;5179419;28;20226;-57
2022/06/17 04:36:22;;;;;;;6.15;5.75;;;14.20;99.90;;;15.11;75.67;98643.03;5172708;28;20227;-56
2022/06/17 04:39:00;;;;;;;6.82;6.43;;;14.40;99.90;;;15.23;75.56;98647.91;5173396;28;20253;-56
2022/06/17 04:41:38;;;;;;;7.20;6.63;;;14.50;99.90;;;15.35;75.27;98652.81;5177526;28;20203;-57
2022/06/17 04:44:14;;;;;;;7.25;6.75;;;14.50;99.90;;;15.55;75.10;98654.69;5173745;28;20258;-56
2022/06/17 04:46:52;;;;;;;8.05;7.35;;;14.80;99.90;;;15.88;74.12;98649.47;5179484;28;20256;-55
2022/06/17 04:49:30;;;;;;;7.07;6.40;;;15.20;99.90;;;16.28;71.90;98659.13;5175768;28;20272;-56
2022/06/17 04:52:07;;;;;;;6.75;6.15;;;15.60;99.90;;;16.71;70.40;98662.03;5183281;28;20615;-55
2022/06/17 04:54:41;;;;;;;6.47;5.97;;;15.90;99.90;;;17.11;68.29;98645.75;5214938;22;20981;-59
2022/06/17 04:57:15;;;;;;;6.13;5.57;;;16.30;99.90;;;17.65;66.31;98651.50;5202001;28;20241;-59
2022/06/17 04:59:48;;;;;;;6.03;5.63;;;16.70;99.90;;;18.04;64.25;98650.56;5210638;28;20266;-58
2022/06/17 05:02:25;;;;;;;5.53;5.22;;;17.10;99.90;;;18.39;63.57;98649.34;5193627;28;20198;-60
2022/06/17 05:05:08;;;;;;;6.05;5.57;;;17.30;99.90;;;18.62;61.62;98653.69;5211139;28;20217;-59
2022/06/17 05:07:45;;;;;;;5.50;5.10;;;17.60;99.90;;;19.06;60.50;98644.16;5207102;28;20201;-60
2022/06/17 05:10:37;;;;;;;5.53;5.13;;;17.90;99.90;;;19.63;58.62;98656.53;5206081;28;20202;-59
2022/06/17 05:13:15;;;;;;;5.72;5.32;;;18.30;99.50;;;20.08;57.54;98655.41;5202758;28;20237;-60
2022/06/17 05:15:48;;;;;;;5.22;4.80;;;18.70;98.70;;;20.40;56.47;98652.16;5205457;28;20214;-59
2022/06/17 05:18:22;;;;;;;5.55;5.15;;;19.00;98.30;;;20.54;56.03;98662.97;5210431;28;20659;-60
2022/06/17 05:20:56;;;;;;;5.40;5.00;;;19.00;98.00;;;20.43;56.08;98653.94;5206342;28;20228;-59
2022/06/17 05:23:30;;;;;;;5.80;5.40;;;18.80;98.40;;;20.41;56.71;98660.81;5205179;28;20225;-56
2022/06/17 05:26:03;;;;;;;5.50;5.10;;;19.00;98.40;;;20.65;56.15;98666.78;5206730;28;20592;-56
2022/06/17 05:28:37;;;;;;;6.05;5.65;;;19.20;97.90;;;20.83;55.01;98670.75;5204809;28;20237;-53
2022/06/17 05:31:15;;;;;;;5.55;5.15;;;19.30;97.40;;;21.21;53.91;98673.59;5205800;28;20198;-57
2022/06/17 05:33:48;;;;;;;6.18;5.72;;;19.60;96.90;;;21.34;53.76;98676.56;5203683;28;20718;-56
2022/06/17 05:36:23;;;;;;;6.00;5.60;;;19.60;97.10;;;21.32;54.92;98677.38;5202435;28;20206;-56
2022/06/17 05:38:56;;;;;;;5.32;4.93;;;19.70;97.30;;;21.46;53.67;98690.78;5209427;28;20243;-56
2022/06/17 05:41:29;;;;;;;6.18;5.68;;;19.90;96.30;;;21.63;53.43;98688.63;5210617;28;20715;-54
2022/06/17 05:44:02;;;;;;;5.40;5.05;;;19.90;96.20;;;21.88;53.01;98696.22;5205063;28;20752;-56
2022/06/17 05:46:36;;;;;;;5.60;5.20;;;20.10;96.30;;;22.07;51.88;98691.50;5204603;28;20741;-56
2022/06/17 05:49:09;;;;;;;6.32;5.72;;;20.20;96.00;;;22.15;51.63;98684.75;5209638;28;20209;-56
2022/06/17 05:51:44;;;;;;;6.03;5.63;;;20.40;95.20;;;22.56;50.54;98687.50;5207420;28;20232;-57
2022/06/17 05:54:17;;;;;;;5.55;5.25;;;20.60;94.80;;;22.70;51.11;98693.91;5190115;28;20225;-57
2022/06/17 05:56:50;;;;;;;5.53;5.13;;;20.80;95.20;;;22.91;48.76;98678.72;5181052;28;20230;-57
2022/06/17 05:59:23;;;;;;;5.28;4.97;;;20.90;93.90;;;23.08;48.79;98683.44;5179545;28;20232;-55
2022/06/17 06:01:56;;;;;;;5.47;5.10;;;21.10;93.90;;;23.46;47.67;98694.63;5181914;28;20230;-57
2022/06/17 06:04:31;;;;;;;5.28;4.88;;;21.30;93.10;;;23.88;46.88;98696.31;5182448;28;20272;-57
2022/06/17 06:07:05;;;;;;;4.63;4.30;;;21.90;92.60;;;23.87;47.04;98697.19;5186060;28;20264;-56
2022/06/17 06:09:39;;;;;;;5.22;4.72;;;21.90;92.20;;;24.09;45.86;98698.41;5182472;28;20610;-57
2022/06/17 06:12:12;;;;;;;5.75;4.75;;;21.90;91.80;;;24.35;44.62;98697.94;5186181;28;20869;-57
2022/06/17 06:14:46;;;;;;;4.70;4.38;;;22.10;90.90;;;24.40;44.18;98702.41;5178398;28;20217;-56
2022/06/17 06:17:19;;;;;;;4.97;4.43;;;22.00;91.00;;;24.94;43.08;98695.38;5169544;28;20659;-57
2022/06/17 06:19:52;;;;;;;5.03;4.60;;;22.30;90.40;;;25.15;42.54;98694.78;5165344;28;20207;-58
2022/06/17 06:22:27;;;;;;;4.53;4.10;;;22.60;89.80;;;25.34;41.92;98690.66;5185117;28;20198;-58
2022/06/17 06:25:00;;;;;;;4.43;4.13;;;22.70;89.00;;;25.38;40.84;98689.81;5187216;28;20229;-56
2022/06/17 06:27:34;;;;;;;4.70;4.30;;;22.80;87.90;;;25.44;39.84;98689.91;5179272;28;20218;-58
2022/06/17 06:30:10;;;;;;;4.60;4.20;;;22.80;86.20;;;25.70;40.06;98695.44;5184396;28;20286;-57
2022/06/17 06:32:49;;;;;;;4.90;4.50;;;23.10;86.30;;;24.99;42.05;98687.59;5160816;28;20237;-56
2022/06/17 06:35:25;;;;;;;4.45;4.05;;;23.00;87.10;;;25.07;42.02;98684.22;5178500;28;20232;-57
2022/06/17 06:38:00;;;;;;;4.63;3.72;;;22.90;86.90;;;25.76;41.23;98695.47;5187923;28;20202;-57
2022/06/17 06:40:34;;;;;;;4.05;3.75;;;23.50;86.10;;;26.03;39.17;98684.41;5179526;28;20244;-55
2022/06/17 06:43:14;;;;;;;4.45;4.05;;;23.90;82.90;;;26.58;38.84;98680.47;5181483;28;20253;-57
2022/06/17 06:45:51;;;;;;;4.40;4.07;;;24.10;83.40;;;26.81;37.81;98686.72;5182282;28;20650;-58
2022/06/17 06:48:27;;;;;;;4.05;3.75;;;24.30;81.30;;;26.99;37.44;98685.09;5190007;28;20650;-55
2022/06/17 06:51:00;;;;;;;4.38;3.97;;;24.50;80.40;;;26.54;38.04;98695.31;5188724;28;20255;-56
2022/06/17 06:53:34;;;;;;;4.10;3.80;;;24.20;81.30;;;26.81;37.83;98693.72;5189044;28;20312;-56
2022/06/17 06:56:07;;;;;;;3.55;3.35;;;24.40;81.10;;;26.81;37.92;98694.59;5208632;28;20212;-58
2022/06/17 06:58:40;;;;;;;3.53;3.22;;;24.50;81.00;;;26.91;38.05;98693.78;5211017;28;20247;-58
2022/06/17 07:01:14;;;;;;;3.58;3.20;;;24.90;80.10;;;27.78;36.67;98693.22;5211717;28;20511;-57
2022/06/17 07:03:47;;;;;;;4.65;3.83;;;25.40;78.50;;;27.78;35.83;98694.97;5206460;28;20228;-56
2022/06/17 07:06:20;;;;;;;3.47;3.17;;;25.50;77.30;;;28.20;35.55;98696.81;5205109;28;20853;-58
2022/06/17 07:08:55;;;;;;;3.67;3.38;;;25.80;77.30;;;28.26;32.96;98699.44;5210955;28;20588;-59
2022/06/17 07:11:28;;;;;;;4.03;3.47;;;26.10;72.60;;;28.48;32.51;98695.06;5212491;28;20669;-59
2022/06/17 07:14:01;;;;;;;3.50;3.20;;;26.10;72.30;;;28.69;32.68;98701.19;5207490;28;20759;-59
2022/06/17 07:16:34;;;;;;;4.13;3.70;;;26.30;72.80;;;28.83;33.58;98701.16;5206807;28;20243;-56
2022/06/17 07:19:10;;;;;;;3.97;3.15;;;26.70;72.20;;;29.19;31.69;98697.56;5218479;28;20235;-58
2022/06/17 07:21:43;;;;;;;4.00;3.58;;;26.80;69.70;;;29.22;32.73;98704.53;5212671;28;20189;-59
2022/06/17 07:24:17;;;;;;;3.50;3.30;;;26.70;71.50;;;28.85;31.92;98705.53;5213792;28;20647;-58
2022/06/17 07:26:51;;;;;;;3.70;3.40;;;26.80;70.60;;;29.01;32.88;98701.06;5214909;28;20653;-58
2022/06/17 07:29:24;;;;;;;4.10;3.70;;;26.80;71.40;;;28.91;32.26;98707.28;5210618;28;20263;-59
2022/06/17 07:31:57;;;;;;;3.30;3.10;;;26.80;70.30;;;28.80;31.32;98712.56;5213468;28;20255;-58
2022/06/17 07:34:30;;;;;;;3.60;3.30;;;26.50;69.70;;;28.85;33.31;98715.19;5215255;28;20218;-59
2022/06/17 07:39:58;;;;;;;3.50;3.17;;;26.70;70.00;;;29.22;32.80;98704.53;5208117;28;20233;-60
2022/06/17 07:42:38;;;;;;;3.58;3.28;;;26.70;71.60;;;29.67;31.83;98706.09;5211192;28;20193;-59
2022/06/17 07:45:16;;;;;;;4.00;3.40;;;27.10;70.20;;;29.77;32.31;98699.03;5215227;28;20228;-59
2022/06/17 07:47:49;;;;;;;3.42;3.13;;;27.20;70.70;;;30.09;30.92;98706.72;5219060;28;20198;-58
2022/06/17 07:50:27;;;;;;;3.85;3.33;;;27.50;69.00;;;29.44;31.86;98711.47;5210958;28;20198;-59
2022/06/17 07:53:01;;;;;;;4.03;3.30;;;27.00;70.50;;;29.59;32.01;98700.88;5213581;28;20237;-59
2022/06/17 07:55:36;;;;;;;3.38;3.10;;;27.20;71.10;;;29.58;32.76;98704.38;5206850;28;20639;-59
2022/06/17 07:58:12;;;;;;;3.42;3.13;;;27.30;71.30;;;29.78;31.98;98703.41;5202640;28;20201;-60
2022/06/17 08:00:47;;;;;;;4.00;3.55;;;27.30;70.90;;;30.13;31.03;98697.00;5199804;28;20221;-60
2022/06/17 08:03:20;;;;;;;3.63;3.30;;;27.70;69.50;;;29.62;32.97;98705.25;5206607;28;20220;-60
2022/06/17 08:05:56;;;;;;;3.97;3.38;;;27.70;70.30;;;30.30;30.79;98703.94;5205209;28;20317;-60
2022/06/17 08:08:31;;;;;;;3.70;3.40;;;27.60;69.10;;;30.43;30.61;98704.69;5204867;28;20202;-60
2022/06/17 08:11:06;;;;;;;4.57;3.40;;;27.70;68.50;;;29.97;31.93;98698.91;5205548;28;20235;-60
2022/06/17 08:13:40;;;;;;;3.70;3.40;;;27.60;70.00;;;29.66;33.30;98706.13;5201715;28;20244;-60
2022/06/17 08:16:15;;;;;;;4.10;3.67;;;27.20;72.90;;;29.74;32.67;98702.56;5200185;28;20618;-60
2022/06/17 08:18:48;;;;;;;4.03;3.55;;;27.40;71.60;;;30.38;32.15;98710.91;5206368;28;20197;-60
2022/06/17 08:21:21;;;;;;;3.78;3.47;;;27.90;70.20;;;30.41;32.23;98713.50;5204955;28;20542;-59
2022/06/17 08:24:14;;;;;;;3.72;3.42;;;28.00;70.80;;;30.30;31.79;98718.88;5196616;28;20231;-60
2022/06/17 08:26:49;;;;;;;4.13;3.10;;;28.00;69.30;;;30.56;31.04;98712.50;5191985;28;20207;-60
2022/06/17 08:29:22;;;;;;;4.00;3.70;;;28.10;68.10;;;30.45;31.54;98710.84;5200333;28;20201;-59
2022/06/17 08:35:07;;;;;;;3.50;3.15;;;28.30;68.60;;;30.74;31.05;98701.75;5203826;28;20245;-60
2022/06/17 08:37:40;;;;;;;3.60;3.30;;;28.50;67.10;;;30.51;30.42;98705.50;5192736;28;20257;-58
2022/06/17 08:40:36;;;;;;;3.45;3.17;;;28.40;66.20;;;30.57;30.42;98709.84;5197140;28;20193;-58
2022/06/17 08:43:32;;;;;;;3.30;3.00;;;28.40;66.00;;;30.42;31.68;98708.22;5198631;28;20217;-59
2022/06/17 08:46:17;;;;;;;3.53;3.22;;;28.70;66.60;;;30.15;31.21;98711.06;5195177;28;20217;-58
2022/06/17 08:49:22;;;;;;;3.50;3.20;;;28.40;67.20;;;30.24;31.75;98711.00;5195060;28;20202;-59
2022/06/17 08:52:18;;;;;;;3.22;3.03;;;28.40;66.60;;;30.13;31.23;98705.78;5202623;28;20225;-59
2022/06/17 08:55:02;;;;;;;3.25;3.05;;;28.30;67.30;;;30.38;31.01;98714.41;5185120;28;20226;-59
2022/06/17 08:57:46;;;;;;;3.63;3.33;;;28.40;66.50;;;30.39;30.46;98710.00;5182405;28;20202;-60
2022/06/17 09:00:27;;;;;;;3.90;3.55;;;28.60;65.60;;;30.17;30.87;98699.63;5181732;28;20216;-60
2022/06/17 09:03:34;;;;;;;3.88;3.10;;;28.50;66.00;;;30.11;31.24;98698.81;5187853;28;20233;-60
2022/06/17 09:06:21;;;;;;;3.72;3.40;;;28.60;65.50;;;30.20;30.67;98701.34;5182880;28;20226;-59
2022/06/17 09:09:34;;;;;;;3.50;3.20;;;28.50;65.60;;;29.91;32.83;98691.91;5181591;28;20297;-60
2022/06/17 09:12:17;;;;;;;5.88;3.40;;;28.50;68.00;;;30.09;31.55;98694.38;5176780;28;20714;-60
2022/06/17 09:15:04;;;;;;;3.50;3.30;;;28.60;66.80;;;30.27;31.18;98692.53;5175711;28;20656;-60
2022/06/17 09:17:48;;;;;;;4.18;3.38;;;28.70;66.50;;;30.27;31.11;98697.78;5182141;28;20230;-60
2022/06/17 09:20:32;;;;;;;3.63;3.33;;;28.90;65.10;;;30.27;31.19;98684.59;5182500;28;20651;-59
2022/06/17 09:23:10;;;;;;;4.43;2.92;;;28.70;66.30;;;30.00;31.62;98691.84;5181159;28;20716;-59
2022/06/17 09:25:45;;;;;;;3.78;3.40;;;28.50;65.70;;;29.89;32.38;98693.66;5180861;28;20855;-60
2022/06/17 09:28:25;;;;;;;3.60;3.30;;;28.50;67.10;;;29.87;32.07;98690.16;5195344;28;20198;-58
2022/06/17 09:31:04;;;;;;;3.42;3.13;;;28.40;66.30;;;30.04;32.16;98693.53;5176730;28;20608;-59
2022/06/17 09:33:44;;;;;;;3.55;3.30;;;28.70;66.10;;;30.00;32.28;98697.09;5176362;28;20213;-59
2022/06/17 09:36:24;;;;;;;3.33;3.13;;;28.70;66.30;;;29.84;33.33;98701.59;5189351;28;20193;-59
2022/06/17 09:39:04;;;;;;;4.03;3.33;;;28.50;68.70;;;29.85;31.37;98700.72;5185590;28;20245;-59
2022/06/17 09:41:43;;;;;;;3.63;3.33;;;28.50;65.80;;;29.60;31.84;98704.38;5185622;28;20206;-59
2022/06/17 09:44:22;;;;;;;3.78;3.53;;;28.30;65.90;;;29.44;32.19;98700.94;5190299;28;20279;-59
2022/06/17 09:47:05;;;;;;;3.63;3.42;;;28.10;66.30;;;29.34;32.77;98686.94;5187777;28;20320;-60
2022/06/17 09:49:48;;;;;;;3.60;3.30;;;28.00;67.50;;;29.57;32.40;98683.31;5175290;28;20675;-60
2022/06/17 09:52:27;;;;;;;3.67;3.38;;;28.20;66.90;;;29.55;32.93;98691.22;5174108;28;20233;-59
2022/06/17 09:55:13;;;;;;;3.67;3.38;;;28.40;67.40;;;29.89;31.99;98696.31;5188226;28;20320;-59
2022/06/17 09:57:51;;;;;;;3.17;2.78;;;28.80;65.80;;;29.82;32.58;98698.13;5189963;28;20225;-59
2022/06/17 10:00:31;;;;;;;3.88;2.80;;;28.70;65.90;;;29.66;32.12;98701.72;5189000;28;20270;-60
2022/06/17 10:03:21;;;;;;;3.22;3.00;;;28.40;66.10;;;29.56;32.21;98711.44;5189204;28;20217;-59
2022/06/17 10:06:19;;;;;;;3.20;2.90;;;28.50;65.40;;;29.58;33.08;98693.81;5192411;28;20202;-59
2022/06/17 10:09:07;;;;;;;4.25;2.90;;;28.50;66.80;;;29.61;32.78;98685.03;5190102;28;20198;-60
2022/06/17 10:11:50;;;;;;;2.90;2.70;;;28.50;67.30;;;29.79;31.96;98687.59;5183525;28;20636;-59
2022/06/17 10:14:47;;;;;;;3.70;3.10;;;28.80;65.60;;;29.83;31.91;98678.78;5192287;28;20682;-59
2022/06/17 10:20:35;;;;;;;3.47;3.17;;;28.70;65.20;;;29.60;30.77;98668.34;5190080;28;20255;-59
2022/06/17 10:23:25;;;;;;;3.28;2.97;;;28.60;63.80;;;29.40;34.01;98667.59;5197209;28;20635;-59
2022/06/17 10:26:14;;;;;;;3.78;3.47;;;28.50;67.20;;;29.18;32.76;98672.94;5183128;28;20694;-59
2022/06/17 10:29:36;;;;;;;3.03;2.72;;;28.20;66.00;;;29.11;32.36;98660.72;5182153;28;20628;-59
2022/06/17 10:32:09;;;;;;;3.40;3.15;;;28.10;65.70;;;29.00;33.31;98662.47;5178787;28;20303;-59
2022/06/17 10:34:47;;;;;;;3.30;3.00;;;28.10;66.30;;;29.11;33.40;98662.47;5188282;28;20222;-59
2022/06/17 10:37:21;;;;;;;2.90;2.63;;;28.10;66.10;;;29.17;31.88;98665.94;5190137;28;20193;-59
2022/06/17 10:40:19;;;;;;;3.00;2.78;;;28.20;64.10;;;29.10;31.28;98658.97;5187399;28;20280;-59
2022/06/17 10:42:57;;;;;;;2.95;2.67;;;28.10;62.80;;;29.05;31.30;98655.47;5190562;28;21901;-58
2022/06/17 10:45:30;;;;;;;3.15;2.85;;;28.10;63.40;;;29.17;31.39;98657.19;5186643;28;20385;-59
2022/06/17 10:48:14;;;;;;;2.92;2.72;;;28.30;63.80;;;29.22;32.36;98657.13;5185383;28;20288;-59
2022/06/17 10:50:47;;;;;;;2.92;2.72;;;28.40;64.50;;;29.24;31.02;98656.25;5187126;28;20195;-59
2022/06/17 10:53:28;;;;;;;2.80;2.55;;;28.30;62.80;;;29.26;30.05;98654.50;5186045;28;20233;-59
2022/06/17 10:56:09;;;;;;;2.85;2.65;;;28.30;61.50;;;29.11;30.01;98650.19;5212386;22;20588;-61
2022/06/17 10:58:57;;;;;;;3.03;2.20;;;28.20;60.20;;;29.17;29.06;98644.88;5195622;28;20209;-59
2022/06/17 11:01:52;;;;;;;2.60;2.33;;;28.10;59.90;;;29.30;28.69;98647.44;5193021;28;20248;-60
2022/06/17 11:04:29;;;;;;;2.35;2.15;;;28.30;59.40;;;29.15;28.71;98651.91;5194622;28;20193;-61
2022/06/17 11:07:08;;;;;;;2.60;2.40;;;28.20;59.30;;;29.17;30.64;98660.69;5194081;28;20260;-61
2022/06/17 11:09:48;;;;;;;2.80;2.60;;;28.20;61.40;;;29.04;31.74;98658.97;5201776;28;20197;-60
2022/06/17 11:12:27;;;;;;;3.60;2.80;;;28.10;63.60;;;28.88;32.05;98652.00;5201444;28;20562;-61
2022/06/17 11:15:05;;;;;;;3.30;3.00;;;28.00;63.60;;;28.87;32.38;98652.88;5193748;28;20224;-59
2022/06/17 11:17:43;;;;;;;2.78;2.58;;;28.00;64.90;;;28.89;31.42;98661.63;5194783;28;20198;-61
2022/06/17 11:20:24;;;;;;;2.92;2.72;;;28.00;63.10;;;28.82;31.98;98647.63;5201855;28;20716;-61